Time;durP1;ratioP1;P1;durP2;ratioP2;P2;SDS_P1;SDS_P2;PMS_P1;PMS_P2;Temp;Humidity;BMP_temperature;BMP_pressure;BME280_temperature;BME280_humidity;BME280_pressure;Samples;Min_cycle;Max_cycle;Signal;HPM_P1;HPM_P2
2021/10/31 00:01:29;;;;;;;;;;;23.70;36.20;;;;;;479615;248;1175;-71
2021/10/31 00:03:30;;;;;;;;;;;23.80;35.90;;;;;;479661;248;1215;-71
2021/10/31 00:05:32;;;;;;;;;;;23.70;36.00;;;;;;479703;248;1063;-71
2021/10/31 00:07:33;;;;;;;;;;;23.70;36.00;;;;;;479542;248;1199;-71
2021/10/31 00:09:34;;;;;;;;;;;24.00;35.70;;;;;;479635;248;1142;-71
2021/10/31 00:11:35;;;;;;;;;;;24.00;35.60;;;;;;479585;248;1144;-71
2021/10/31 00:13:37;;;;;;;;;;;24.00;35.50;;;;;;479667;248;986;-71
2021/10/31 00:15:38;;;;;;;;;;;24.00;35.50;;;;;;479612;248;2202;-71
2021/10/31 00:17:40;;;;;;;;;;;23.70;36.00;;;;;;479480;248;1130;-71
2021/10/31 00:19:41;;;;;;;;;;;23.90;35.70;;;;;;479605;248;1163;-71
2021/10/31 00:21:42;;;;;;;;;;;24.00;35.60;;;;;;479503;248;1123;-71
2021/10/31 00:23:44;;;;;;;;;;;23.90;35.70;;;;;;479566;248;1206;-71
2021/10/31 00:25:45;;;;;;;;;;;24.00;35.50;;;;;;479646;248;1148;-71
2021/10/31 00:27:46;;;;;;;;;;;23.80;35.70;;;;;;479586;248;1056;-71
2021/10/31 00:29:48;;;;;;;;;;;24.00;35.30;;;;;;479662;248;935;-71
2021/10/31 00:31:49;;;;;;;;;;;23.90;35.80;;;;;;479508;248;1327;-71
2021/10/31 00:33:50;;;;;;;;;;;23.90;35.50;;;;;;479608;248;1174;-71
2021/10/31 00:35:52;;;;;;;;;;;23.70;35.80;;;;;;479554;248;2111;-71
2021/10/31 00:37:53;;;;;;;;;;;23.90;35.60;;;;;;479517;248;1044;-71
2021/10/31 00:39:54;;;;;;;;;;;24.00;35.40;;;;;;479589;248;1111;-71
2021/10/31 00:41:56;;;;;;;;;;;23.70;35.80;;;;;;479559;248;1320;-71
2021/10/31 00:43:57;;;;;;;;;;;23.90;35.60;;;;;;479614;248;1168;-71
2021/10/31 00:45:58;;;;;;;;;;;23.60;35.90;;;;;;479625;245;1227;-71
2021/10/31 00:48:00;;;;;;;;;;;23.80;35.60;;;;;;479639;248;1136;-71
2021/10/31 00:50:01;;;;;;;;;;;24.00;35.50;;;;;;479654;248;1112;-71
2021/10/31 00:52:03;;;;;;;;;;;23.90;35.40;;;;;;479552;248;1173;-71
2021/10/31 00:54:04;;;;;;;;;;;24.00;35.30;;;;;;479624;248;981;-71
2021/10/31 00:56:05;;;;;;;;;;;24.00;35.50;;;;;;479599;246;2127;-71
2021/10/31 00:58:07;;;;;;;;;;;24.00;35.30;;;;;;479645;248;999;-71
2021/10/31 01:00:09;;;;;;;;;;;24.10;35.20;;;;;;479639;248;952;-71
2021/10/31 01:02:11;;;;;;;;;;;23.90;35.30;;;;;;479531;248;1406;-71
2021/10/31 01:04:12;;;;;;;;;;;23.40;35.80;;;;;;479580;248;1372;-71
2021/10/31 01:06:12;;;;;;;;;;;23.70;35.80;;;;;;479545;248;1422;-71
2021/10/31 01:08:15;;;;;;;;;;;23.90;35.60;;;;;;479642;248;1388;-71
2021/10/31 01:10:15;;;;;;;;;;;23.80;35.50;;;;;;479639;248;1357;-71
2021/10/31 01:12:16;;;;;;;;;;;23.70;35.70;;;;;;479602;248;1191;-71
2021/10/31 01:14:18;;;;;;;;;;;23.90;35.60;;;;;;479652;248;1115;-71
2021/10/31 01:16:19;;;;;;;;;;;23.90;35.50;;;;;;479509;248;2206;-71
2021/10/31 01:18:21;;;;;;;;;;;23.90;35.40;;;;;;479616;248;1143;-71
2021/10/31 01:20:22;;;;;;;;;;;24.00;35.30;;;;;;479547;248;951;-71
2021/10/31 01:22:23;;;;;;;;;;;23.80;35.30;;;;;;479483;248;1223;-71
2021/10/31 01:24:25;;;;;;;;;;;23.80;35.40;;;;;;479552;248;998;-71
2021/10/31 01:26:26;;;;;;;;;;;23.90;35.20;;;;;;479683;248;1184;-71
2021/10/31 01:28:27;;;;;;;;;;;23.90;35.20;;;;;;479617;248;991;-71
2021/10/31 01:30:29;;;;;;;;;;;23.90;35.30;;;;;;479649;248;1103;-71
2021/10/31 01:32:30;;;;;;;;;;;24.00;35.10;;;;;;479643;248;1065;-71
2021/10/31 01:34:31;;;;;;;;;;;23.90;35.10;;;;;;479722;248;1194;-71
2021/10/31 01:36:33;;;;;;;;;;;24.00;35.10;;;;;;479558;248;2127;-71
2021/10/31 01:38:34;;;;;;;;;;;23.90;35.10;;;;;;479611;248;1108;-71
2021/10/31 01:40:35;;;;;;;;;;;23.90;35.00;;;;;;479613;248;1215;-71
2021/10/31 01:42:37;;;;;;;;;;;23.90;35.00;;;;;;479504;248;1106;-71
2021/10/31 01:44:39;;;;;;;;;;;23.90;35.00;;;;;;479623;248;964;-71
2021/10/31 01:46:40;;;;;;;;;;;23.80;35.20;;;;;;479509;248;1336;-71
2021/10/31 01:48:41;;;;;;;;;;;23.90;35.10;;;;;;479577;248;1154;-71
2021/10/31 01:50:43;;;;;;;;;;;23.90;35.10;;;;;;479635;248;1197;-71
2021/10/31 01:52:44;;;;;;;;;;;23.90;35.00;;;;;;479509;248;1099;-71
2021/10/31 01:54:45;;;;;;;;;;;24.00;34.90;;;;;;479600;248;962;-71
2021/10/31 01:56:47;;;;;;;;;;;24.00;34.80;;;;;;479592;248;1200;-71
2021/10/31 01:58:48;;;;;;;;;;;24.00;34.90;;;;;;479601;248;1087;-72
2021/10/31 02:00:49;;;;;;;;;;;23.80;35.00;;;;;;479519;248;1288;-71
2021/10/31 02:02:51;;;;;;;;;;;23.80;35.30;;;;;;479532;248;1037;-71
2021/10/31 02:04:52;;;;;;;;;;;23.90;35.10;;;;;;479655;248;1183;-71
2021/10/31 02:06:53;;;;;;;;;;;23.90;35.00;;;;;;479502;248;1234;-71
2021/10/31 02:08:55;;;;;;;;;;;24.00;34.90;;;;;;479682;248;1117;-71
2021/10/31 02:10:56;;;;;;;;;;;23.80;35.10;;;;;;479530;248;1094;-71
2021/10/31 02:12:57;;;;;;;;;;;24.00;35.00;;;;;;479504;248;1128;-71
2021/10/31 02:14:59;;;;;;;;;;;24.00;34.90;;;;;;479619;248;2122;-71
2021/10/31 02:17:00;;;;;;;;;;;23.90;34.90;;;;;;479460;248;1190;-71
2021/10/31 02:19:04;;;;;;;;;;;23.90;35.10;;;;;;479543;248;1142;-71
2021/10/31 02:21:04;;;;;;;;;;;23.90;35.10;;;;;;479419;245;1322;-71
2021/10/31 02:23:05;;;;;;;;;;;23.80;35.20;;;;;;479716;248;1108;-71
2021/10/31 02:25:06;;;;;;;;;;;23.90;35.10;;;;;;479597;248;1097;-71
2021/10/31 02:27:08;;;;;;;;;;;23.90;35.20;;;;;;479489;248;1086;-71
2021/10/31 02:29:09;;;;;;;;;;;23.90;35.20;;;;;;479609;248;1012;-71
2021/10/31 02:31:11;;;;;;;;;;;23.90;35.00;;;;;;479583;248;1207;-71
2021/10/31 02:33:12;;;;;;;;;;;24.00;35.00;;;;;;479591;248;1070;-71
2021/10/31 02:35:14;;;;;;;;;;;24.00;35.00;;;;;;479627;248;2147;-71
2021/10/31 02:37:14;;;;;;;;;;;23.90;35.10;;;;;;479636;248;1063;-71
2021/10/31 02:39:16;;;;;;;;;;;23.90;35.10;;;;;;479628;248;954;-71
2021/10/31 02:41:17;;;;;;;;;;;23.80;35.20;;;;;;479581;246;1399;-71
2021/10/31 02:43:19;;;;;;;;;;;23.90;35.00;;;;;;479612;248;1077;-71
2021/10/31 02:45:20;;;;;;;;;;;24.00;34.80;;;;;;479639;248;963;-71
2021/10/31 02:47:21;;;;;;;;;;;24.00;34.90;;;;;;479572;248;1177;-71
2021/10/31 02:49:23;;;;;;;;;;;23.90;34.70;;;;;;479600;248;1192;-71
2021/10/31 02:51:24;;;;;;;;;;;23.90;34.80;;;;;;479612;248;1240;-71
2021/10/31 02:53:25;;;;;;;;;;;24.00;34.70;;;;;;479594;248;970;-71
2021/10/31 02:55:26;;;;;;;;;;;24.00;34.60;;;;;;479612;248;2193;-71
2021/10/31 02:57:28;;;;;;;;;;;23.90;34.80;;;;;;479476;248;1168;-71
2021/10/31 02:59:29;;;;;;;;;;;23.80;34.80;;;;;;479616;248;1079;-71
2021/10/31 03:01:30;;;;;;;;;;;23.80;34.80;;;;;;479577;248;1297;-71
2021/10/31 03:03:32;;;;;;;;;;;23.80;34.80;;;;;;479628;248;1367;-71
2021/10/31 03:05:33;;;;;;;;;;;23.90;34.70;;;;;;479743;248;1192;-71
2021/10/31 03:07:34;;;;;;;;;;;23.90;34.70;;;;;;479601;248;1167;-71
2021/10/31 03:09:36;;;;;;;;;;;23.90;34.70;;;;;;479740;248;959;-71
2021/10/31 03:11:37;;;;;;;;;;;24.00;34.60;;;;;;479600;248;1208;-71
2021/10/31 03:13:38;;;;;;;;;;;23.90;34.50;;;;;;479623;248;1052;-71
2021/10/31 03:15:40;;;;;;;;;;;24.00;34.50;;;;;;479683;248;2119;-71
2021/10/31 03:17:41;;;;;;;;;;;24.00;34.40;;;;;;479582;249;1200;-71
2021/10/31 03:19:43;;;;;;;;;;;24.00;34.50;;;;;;479671;248;1149;-71
2021/10/31 03:21:44;;;;;;;;;;;23.90;34.60;;;;;;479561;248;1187;-71
2021/10/31 03:23:45;;;;;;;;;;;23.80;34.60;;;;;;479609;248;1022;-71
2021/10/31 03:25:46;;;;;;;;;;;23.90;34.50;;;;;;479595;248;1084;-71
2021/10/31 03:27:48;;;;;;;;;;;23.90;34.50;;;;;;479500;248;1017;-71
2021/10/31 03:29:49;;;;;;;;;;;23.90;34.40;;;;;;479593;248;1024;-71
2021/10/31 03:31:50;;;;;;;;;;;23.90;34.60;;;;;;479512;248;1268;-71
2021/10/31 03:33:52;;;;;;;;;;;23.90;34.50;;;;;;479579;248;1079;-71
2021/10/31 03:35:53;;;;;;;;;;;23.90;34.50;;;;;;479641;248;2146;-71
2021/10/31 03:37:54;;;;;;;;;;;23.80;34.50;;;;;;479632;248;1148;-71
2021/10/31 03:39:56;;;;;;;;;;;23.80;34.60;;;;;;479660;248;1100;-71
2021/10/31 03:41:57;;;;;;;;;;;23.80;34.50;;;;;;479597;248;1184;-71
2021/10/31 03:43:58;;;;;;;;;;;23.80;34.50;;;;;;479614;248;956;-71
2021/10/31 03:46:00;;;;;;;;;;;23.90;34.40;;;;;;479578;248;1366;-71
2021/10/31 03:48:03;;;;;;;;;;;23.80;34.30;;;;;;479583;248;1098;-71
2021/10/31 03:50:02;;;;;;;;;;;23.90;34.30;;;;;;479497;248;1327;-71
2021/10/31 03:52:04;;;;;;;;;;;23.90;34.40;;;;;;479533;248;1191;-71
2021/10/31 03:54:05;;;;;;;;;;;23.90;34.20;;;;;;479612;248;1163;-71
2021/10/31 03:56:06;;;;;;;;;;;23.80;34.40;;;;;;479528;248;2165;-71
2021/10/31 03:58:08;;;;;;;;;;;23.90;34.30;;;;;;479521;248;1306;-71
2021/10/31 04:00:09;;;;;;;;;;;24.00;34.20;;;;;;479583;248;952;-71
2021/10/31 04:02:10;;;;;;;;;;;24.00;34.20;;;;;;479573;248;1067;-71
2021/10/31 04:04:12;;;;;;;;;;;23.90;34.30;;;;;;479666;248;1103;-71
2021/10/31 04:06:13;;;;;;;;;;;23.90;34.20;;;;;;479609;248;1304;-71
2021/10/31 04:08:14;;;;;;;;;;;24.00;34.10;;;;;;479618;248;992;-71
2021/10/31 04:10:15;;;;;;;;;;;23.90;34.20;;;;;;479626;248;1107;-71
2021/10/31 04:12:17;;;;;;;;;;;24.00;34.10;;;;;;479525;248;1087;-71
2021/10/31 04:14:18;;;;;;;;;;;23.90;34.10;;;;;;479612;247;1012;-72
2021/10/31 04:16:19;;;;;;;;;;;24.00;34.00;;;;;;479592;248;2131;-71
2021/10/31 04:18:21;;;;;;;;;;;23.90;34.00;;;;;;479585;248;975;-71
2021/10/31 04:20:22;;;;;;;;;;;23.90;34.00;;;;;;479608;248;1192;-71
2021/10/31 04:22:23;;;;;;;;;;;23.90;34.10;;;;;;479609;248;1103;-71
2021/10/31 04:24:25;;;;;;;;;;;23.80;34.40;;;;;;479693;248;1043;-71
2021/10/31 04:26:26;;;;;;;;;;;23.70;34.30;;;;;;479510;248;1325;-71
2021/10/31 04:28:27;;;;;;;;;;;23.80;34.20;;;;;;479582;248;1327;-71
2021/10/31 04:30:29;;;;;;;;;;;23.70;34.10;;;;;;479576;248;961;-71
2021/10/31 04:32:30;;;;;;;;;;;23.80;34.10;;;;;;479523;248;1082;-71
2021/10/31 04:34:31;;;;;;;;;;;23.70;34.20;;;;;;479580;248;955;-71
2021/10/31 04:36:33;;;;;;;;;;;23.80;34.10;;;;;;479511;248;2205;-71
2021/10/31 04:38:34;;;;;;;;;;;23.90;34.00;;;;;;479625;248;999;-71
2021/10/31 04:40:37;;;;;;;;;;;23.80;34.00;;;;;;479609;248;928;-71
2021/10/31 04:42:37;;;;;;;;;;;23.80;34.00;;;;;;479404;248;1957;-71
2021/10/31 04:44:38;;;;;;;;;;;23.80;34.00;;;;;;479671;248;950;-71
2021/10/31 04:46:39;;;;;;;;;;;23.90;33.90;;;;;;479522;248;1181;-71
2021/10/31 04:48:41;;;;;;;;;;;23.90;33.90;;;;;;479580;248;962;-71
2021/10/31 04:50:42;;;;;;;;;;;23.80;33.90;;;;;;479582;248;1329;-71
2021/10/31 04:52:43;;;;;;;;;;;23.80;33.80;;;;;;479593;248;1093;-71
2021/10/31 04:54:45;;;;;;;;;;;23.80;33.80;;;;;;479684;248;1117;-71
2021/10/31 04:56:46;;;;;;;;;;;23.70;33.80;;;;;;479542;248;2186;-71
2021/10/31 04:58:47;;;;;;;;;;;23.80;33.70;;;;;;479554;248;964;-71
2021/10/31 05:00:49;;;;;;;;;;;23.70;33.70;;;;;;479603;248;1158;-71
2021/10/31 05:02:51;;;;;;;;;;;23.70;33.80;;;;;;479654;248;938;-72
2021/10/31 05:04:52;;;;;;;;;;;23.90;33.70;;;;;;479651;248;1078;-71
2021/10/31 05:06:53;;;;;;;;;;;23.80;33.70;;;;;;479478;245;1208;-71
2021/10/31 05:08:55;;;;;;;;;;;23.80;33.70;;;;;;479513;248;978;-71
2021/10/31 05:10:56;;;;;;;;;;;23.90;33.60;;;;;;479544;248;1206;-71
2021/10/31 05:12:58;;;;;;;;;;;23.80;33.70;;;;;;479510;248;1084;-71
2021/10/31 05:14:59;;;;;;;;;;;23.90;33.50;;;;;;479606;248;1048;-72
2021/10/31 05:17:00;;;;;;;;;;;23.70;33.60;;;;;;479604;248;2186;-71
2021/10/31 05:19:02;;;;;;;;;;;23.70;33.60;;;;;;479640;248;961;-71
2021/10/31 05:21:03;;;;;;;;;;;23.80;33.50;;;;;;479596;248;1317;-71
2021/10/31 05:23:04;;;;;;;;;;;23.90;33.40;;;;;;479580;248;1188;-71
2021/10/31 05:25:06;;;;;;;;;;;23.90;33.20;;;;;;479659;248;965;-71
2021/10/31 05:27:07;;;;;;;;;;;23.80;33.30;;;;;;479548;248;1026;-71
2021/10/31 05:29:08;;;;;;;;;;;23.90;33.30;;;;;;479642;248;956;-71
2021/10/31 05:31:10;;;;;;;;;;;24.00;33.20;;;;;;479626;248;1044;-71
2021/10/31 05:33:11;;;;;;;;;;;24.00;33.10;;;;;;479622;248;929;-71
2021/10/31 05:35:12;;;;;;;;;;;23.90;33.10;;;;;;479645;248;966;-71
2021/10/31 05:37:14;;;;;;;;;;;24.00;33.00;;;;;;479560;248;2136;-71
2021/10/31 05:39:15;;;;;;;;;;;23.90;33.00;;;;;;479592;248;978;-72
2021/10/31 05:41:16;;;;;;;;;;;23.90;32.90;;;;;;479573;248;1179;-71
2021/10/31 05:43:18;;;;;;;;;;;23.90;33.00;;;;;;479674;248;1063;-71
2021/10/31 05:45:19;;;;;;;;;;;23.80;33.00;;;;;;479664;245;1338;-71
2021/10/31 05:47:20;;;;;;;;;;;23.80;33.00;;;;;;479521;248;1128;-71
2021/10/31 05:49:22;;;;;;;;;;;23.80;33.00;;;;;;479603;248;1035;-71
2021/10/31 05:51:23;;;;;;;;;;;23.80;33.00;;;;;;479592;248;1230;-71
2021/10/31 05:53:24;;;;;;;;;;;23.90;32.70;;;;;;479669;248;1066;-71
2021/10/31 05:55:26;;;;;;;;;;;23.90;32.80;;;;;;479655;248;947;-71
2021/10/31 05:57:27;;;;;;;;;;;23.90;32.70;;;;;;479571;248;2186;-71
2021/10/31 05:59:28;;;;;;;;;;;23.80;32.70;;;;;;479638;248;967;-71
2021/10/31 06:01:30;;;;;;;;;;;23.80;32.80;;;;;;479568;248;1206;-71
2021/10/31 06:03:31;;;;;;;;;;;23.80;32.80;;;;;;479622;248;1173;-71
2021/10/31 06:05:33;;;;;;;;;;;23.80;32.80;;;;;;479653;248;1099;-71
2021/10/31 06:07:34;;;;;;;;;;;23.70;32.80;;;;;;479578;248;1211;-71
2021/10/31 06:09:35;;;;;;;;;;;23.80;32.80;;;;;;479651;248;1187;-71
2021/10/31 06:11:36;;;;;;;;;;;23.70;32.80;;;;;;479539;248;1219;-71
2021/10/31 06:13:38;;;;;;;;;;;23.80;32.90;;;;;;479589;248;971;-71
2021/10/31 06:15:39;;;;;;;;;;;23.70;32.80;;;;;;479602;248;1182;-71
2021/10/31 06:17:41;;;;;;;;;;;23.70;32.80;;;;;;479534;248;2194;-71
2021/10/31 06:19:42;;;;;;;;;;;23.80;32.80;;;;;;479658;248;1114;-71
2021/10/31 06:21:43;;;;;;;;;;;23.70;32.80;;;;;;479586;248;1196;-71
2021/10/31 06:23:45;;;;;;;;;;;23.70;33.00;;;;;;479647;248;1101;-71
2021/10/31 06:25:46;;;;;;;;;;;23.70;32.90;;;;;;479598;248;1300;-71
2021/10/31 06:27:47;;;;;;;;;;;23.80;32.80;;;;;;479553;248;1108;-71
2021/10/31 06:29:48;;;;;;;;;;;23.80;32.80;;;;;;479632;248;981;-71
2021/10/31 06:31:50;;;;;;;;;;;23.60;33.00;;;;;;479509;248;1117;-71
2021/10/31 06:33:51;;;;;;;;;;;23.70;32.90;;;;;;479499;248;1324;-71
2021/10/31 06:35:52;;;;;;;;;;;23.70;32.80;;;;;;479589;248;1247;-71
2021/10/31 06:37:54;;;;;;;;;;;23.60;33.10;;;;;;479599;248;2179;-71
2021/10/31 06:39:56;;;;;;;;;;;23.70;33.10;;;;;;479665;248;969;-71
2021/10/31 06:41:56;;;;;;;;;;;23.50;33.10;;;;;;479632;248;1534;-71
2021/10/31 06:43:58;;;;;;;;;;;23.60;32.90;;;;;;479642;248;1001;-71
2021/10/31 06:45:59;;;;;;;;;;;23.80;32.80;;;;;;479619;248;1132;-71
2021/10/31 06:48:02;;;;;;;;;;;23.40;33.00;;;;;;479631;248;1081;-71
2021/10/31 06:50:03;;;;;;;;;;;23.70;33.00;;;;;;479609;248;1644;-71
2021/10/31 06:52:04;;;;;;;;;;;23.70;32.80;;;;;;479618;248;1260;-71
2021/10/31 06:54:05;;;;;;;;;;;23.80;32.80;;;;;;479597;248;1211;-71
2021/10/31 06:56:06;;;;;;;;;;;23.80;32.70;;;;;;479572;248;1319;-71
2021/10/31 06:58:08;;;;;;;;;;;23.80;32.70;;;;;;479647;248;2143;-71
2021/10/31 07:00:09;;;;;;;;;;;23.80;32.70;;;;;;479680;248;944;-71
2021/10/31 07:02:10;;;;;;;;;;;23.80;32.70;;;;;;479525;248;1253;-71
2021/10/31 07:04:11;;;;;;;;;;;23.70;33.10;;;;;;479624;248;982;-71
2021/10/31 07:06:13;;;;;;;;;;;23.70;32.90;;;;;;479620;248;1238;-71
2021/10/31 07:08:14;;;;;;;;;;;23.70;33.00;;;;;;479623;248;1113;-71
2021/10/31 07:10:15;;;;;;;;;;;23.90;32.90;;;;;;479620;248;950;-71
2021/10/31 07:12:17;;;;;;;;;;;23.80;32.80;;;;;;479563;248;1272;-71
2021/10/31 07:14:18;;;;;;;;;;;23.90;32.90;;;;;;479665;248;1076;-71
2021/10/31 07:16:19;;;;;;;;;;;23.80;32.80;;;;;;479599;248;1093;-71
2021/10/31 07:18:21;;;;;;;;;;;23.80;33.00;;;;;;479600;248;2165;-71
2021/10/31 07:20:22;;;;;;;;;;;23.80;33.10;;;;;;479626;248;1155;-71
2021/10/31 07:22:23;;;;;;;;;;;23.70;33.30;;;;;;479586;248;1203;-71
2021/10/31 07:24:25;;;;;;;;;;;23.60;33.40;;;;;;479680;248;1197;-71
2021/10/31 07:26:26;;;;;;;;;;;23.70;33.30;;;;;;479633;248;1129;-71
2021/10/31 07:28:27;;;;;;;;;;;23.70;33.30;;;;;;479561;248;1007;-71
2021/10/31 07:30:29;;;;;;;;;;;23.80;33.30;;;;;;479638;248;963;-71
2021/10/31 07:32:31;;;;;;;;;;;23.70;33.50;;;;;;479572;248;1343;-71
2021/10/31 07:34:32;;;;;;;;;;;23.70;33.50;;;;;;479579;248;1044;-71
2021/10/31 07:36:33;;;;;;;;;;;23.80;33.50;;;;;;479628;248;1154;-71
2021/10/31 07:38:38;;;;;;;;;;;23.70;33.60;;;;;;479679;248;2123;-71
2021/10/31 07:40:36;;;;;;;;;;;23.70;33.70;;;;;;479362;248;1343;-71
2021/10/31 07:42:37;;;;;;;;;;;23.90;33.50;;;;;;479512;248;1139;-71
2021/10/31 07:44:39;;;;;;;;;;;23.80;33.50;;;;;;479644;248;1058;-71
2021/10/31 07:46:40;;;;;;;;;;;23.90;33.50;;;;;;479565;248;1260;-71
2021/10/31 07:48:41;;;;;;;;;;;23.90;33.50;;;;;;479640;248;972;-71
2021/10/31 07:50:43;;;;;;;;;;;23.90;33.40;;;;;;479621;248;1230;-71
2021/10/31 07:52:45;;;;;;;;;;;23.90;33.60;;;;;;479600;248;1139;-71
2021/10/31 07:54:45;;;;;;;;;;;23.80;33.70;;;;;;479616;248;1431;-71
2021/10/31 07:56:47;;;;;;;;;;;24.00;33.60;;;;;;479592;248;1128;-71
2021/10/31 07:58:54;;;;;;;;;;;23.90;33.70;;;;;;479535;248;2135;-71
2021/10/31 08:00:49;;;;;;;;;;;23.80;33.80;;;;;;479200;248;1367;-71
2021/10/31 08:02:51;;;;;;;;;;;23.80;33.90;;;;;;479559;248;1107;-71
2021/10/31 08:04:52;;;;;;;;;;;23.90;33.90;;;;;;479605;248;995;-71
2021/10/31 08:06:53;;;;;;;;;;;23.90;33.80;;;;;;479699;248;1068;-71
2021/10/31 08:08:55;;;;;;;;;;;23.80;33.90;;;;;;479640;248;1198;-71
2021/10/31 08:10:56;;;;;;;;;;;23.90;33.90;;;;;;479605;248;1208;-71
2021/10/31 08:12:57;;;;;;;;;;;23.90;33.90;;;;;;479596;248;968;-71
2021/10/31 08:14:59;;;;;;;;;;;23.90;34.00;;;;;;479710;248;963;-71
2021/10/31 08:17:00;;;;;;;;;;;24.00;33.80;;;;;;479640;248;1101;-71
2021/10/31 08:19:01;;;;;;;;;;;24.00;33.90;;;;;;479592;248;2197;-71
2021/10/31 08:21:03;;;;;;;;;;;24.00;33.80;;;;;;479621;248;1209;-71
2021/10/31 08:23:04;;;;;;;;;;;24.00;33.90;;;;;;479589;248;1248;-71
2021/10/31 08:25:05;;;;;;;;;;;23.90;34.20;;;;;;479674;248;1234;-71
2021/10/31 08:27:07;;;;;;;;;;;23.90;34.20;;;;;;479542;248;1242;-71
2021/10/31 08:29:10;;;;;;;;;;;24.00;34.20;;;;;;479628;248;973;-71
2021/10/31 08:31:09;;;;;;;;;;;23.90;34.20;;;;;;479493;249;1365;-71
2021/10/31 08:33:19;;;;;;;;;;;24.00;34.20;;;;;;479588;248;1047;-71
2021/10/31 08:35:19;;;;;;;;;;;24.00;34.30;;;;;;479615;248;1455;-71
2021/10/31 08:37:20;;;;;;;;;;;24.00;34.20;;;;;;479543;246;2185;-71
2021/10/31 08:39:22;;;;;;;;;;;24.00;34.30;;;;;;479600;248;1193;-71
2021/10/31 08:41:23;;;;;;;;;;;24.00;34.40;;;;;;479567;248;1150;-71
2021/10/31 08:43:24;;;;;;;;;;;24.00;34.40;;;;;;479562;248;1094;-71
2021/10/31 08:45:26;;;;;;;;;;;24.10;34.30;;;;;;479650;248;1320;-71
2021/10/31 08:47:27;;;;;;;;;;;24.00;34.40;;;;;;479642;248;1288;-71
2021/10/31 08:49:28;;;;;;;;;;;24.10;34.30;;;;;;479681;248;964;-71
2021/10/31 08:51:30;;;;;;;;;;;24.00;34.50;;;;;;479680;248;1205;-71
2021/10/31 08:53:31;;;;;;;;;;;24.10;34.50;;;;;;479627;248;1116;-71
2021/10/31 08:55:32;;;;;;;;;;;24.00;34.50;;;;;;479580;248;1204;-71
2021/10/31 08:57:34;;;;;;;;;;;24.10;34.50;;;;;;479427;248;2198;-71
2021/10/31 08:59:35;;;;;;;;;;;24.00;34.60;;;;;;479523;248;987;-71
2021/10/31 09:01:36;;;;;;;;;;;24.20;34.50;;;;;;479482;248;1167;-72
2021/10/31 09:03:37;;;;;;;;;;;24.00;34.70;;;;;;479563;248;1128;-71
2021/10/31 09:05:39;;;;;;;;;;;24.10;34.60;;;;;;479610;248;952;-71
2021/10/31 09:07:40;;;;;;;;;;;24.20;34.70;;;;;;479547;248;1094;-71
2021/10/31 09:09:42;;;;;;;;;;;24.20;34.60;;;;;;479605;248;1159;-71
2021/10/31 09:11:45;;;;;;;;;;;24.30;34.60;;;;;;479532;248;946;-71
2021/10/31 09:13:44;;;;;;;;;;;24.10;34.80;;;;;;479407;248;1442;-71
2021/10/31 09:15:46;;;;;;;;;;;24.10;34.80;;;;;;479581;248;1115;-71
2021/10/31 09:17:47;;;;;;;;;;;24.20;34.80;;;;;;479609;248;2189;-72
2021/10/31 09:19:48;;;;;;;;;;;24.20;34.80;;;;;;479643;248;1025;-71
2021/10/31 09:21:50;;;;;;;;;;;24.10;34.80;;;;;;479620;248;1113;-72
2021/10/31 09:23:51;;;;;;;;;;;24.20;34.90;;;;;;479672;248;1070;-71
2021/10/31 09:25:52;;;;;;;;;;;24.20;35.00;;;;;;479606;248;1253;-71
2021/10/31 09:27:54;;;;;;;;;;;24.20;34.80;;;;;;479575;248;1023;-71
2021/10/31 09:29:55;;;;;;;;;;;24.20;34.90;;;;;;479696;248;1116;-71
2021/10/31 09:31:57;;;;;;;;;;;24.30;34.90;;;;;;479523;248;1030;-71
2021/10/31 09:33:59;;;;;;;;;;;24.10;35.10;;;;;;479608;248;966;-71
2021/10/31 09:35:59;;;;;;;;;;;24.10;35.10;;;;;;479504;248;1621;-71
2021/10/31 09:38:03;;;;;;;;;;;24.10;35.10;;;;;;479528;248;2194;-71
2021/10/31 09:40:03;;;;;;;;;;;24.30;34.80;;;;;;479476;248;1444;-71
2021/10/31 09:42:03;;;;;;;;;;;24.30;34.80;;;;;;479438;248;1410;-71
2021/10/31 09:44:13;;;;;;;;;;;24.30;35.00;;;;;;479693;248;1066;-71
2021/10/31 09:46:11;;;;;;;;;;;24.30;34.90;;;;;;479444;248;1248;-71
2021/10/31 09:48:13;;;;;;;;;;;24.30;35.00;;;;;;479605;248;1190;-71
2021/10/31 09:50:14;;;;;;;;;;;24.30;34.90;;;;;;479657;248;939;-72
2021/10/31 09:52:15;;;;;;;;;;;24.30;35.00;;;;;;479536;248;1126;-71
2021/10/31 09:54:17;;;;;;;;;;;24.20;35.10;;;;;;479622;248;954;-71
2021/10/31 09:56:18;;;;;;;;;;;24.10;35.20;;;;;;479603;248;1197;-71
2021/10/31 09:58:21;;;;;;;;;;;24.30;35.10;;;;;;479588;248;2127;-71
2021/10/31 10:00:21;;;;;;;;;;;24.20;35.20;;;;;;479540;248;1373;-71
2021/10/31 10:02:37;;;;;;;;;;;24.30;35.20;;;;;;479506;248;1078;-71
2021/10/31 10:04:38;;;;;;;;;;;24.30;35.20;;;;;;479563;248;1501;-71
2021/10/31 10:06:39;;;;;;;;;;;24.30;35.10;;;;;;479587;248;1115;-71
2021/10/31 10:08:40;;;;;;;;;;;24.40;35.10;;;;;;479672;248;1552;-71
2021/10/31 10:10:42;;;;;;;;;;;24.30;35.20;;;;;;479601;248;1200;-71
2021/10/31 10:12:43;;;;;;;;;;;24.40;35.20;;;;;;479549;248;1198;-71
2021/10/31 10:14:44;;;;;;;;;;;24.50;35.20;;;;;;479614;248;937;-71
2021/10/31 10:16:46;;;;;;;;;;;24.50;35.10;;;;;;479602;248;1153;-71
2021/10/31 10:18:47;;;;;;;;;;;24.40;35.30;;;;;;479640;248;2119;-71
2021/10/31 10:20:48;;;;;;;;;;;24.50;35.40;;;;;;479644;248;960;-71
2021/10/31 10:22:50;;;;;;;;;;;24.40;35.30;;;;;;479653;248;1107;-71
2021/10/31 10:24:51;;;;;;;;;;;24.60;35.30;;;;;;479618;248;1171;-71
2021/10/31 10:26:52;;;;;;;;;;;24.40;35.40;;;;;;479626;248;1207;-72
2021/10/31 10:28:57;;;;;;;;;;;24.40;35.60;;;;;;479573;248;979;-71
2021/10/31 10:30:55;;;;;;;;;;;24.40;35.60;;;;;;479433;248;1428;-71
2021/10/31 10:32:56;;;;;;;;;;;24.40;35.70;;;;;;479635;248;1162;-71
2021/10/31 10:34:58;;;;;;;;;;;24.30;35.70;;;;;;479593;248;966;-71
2021/10/31 10:36:59;;;;;;;;;;;24.40;35.60;;;;;;479629;248;954;-71
2021/10/31 10:39:01;;;;;;;;;;;24.40;35.60;;;;;;479695;248;2199;-71
2021/10/31 10:41:02;;;;;;;;;;;24.40;35.60;;;;;;479605;248;1198;-71
2021/10/31 10:43:03;;;;;;;;;;;24.40;35.60;;;;;;479619;248;1149;-71
2021/10/31 10:45:05;;;;;;;;;;;24.40;35.60;;;;;;479664;248;919;-71
2021/10/31 10:47:06;;;;;;;;;;;24.40;35.60;;;;;;479540;248;1270;-71
2021/10/31 10:49:08;;;;;;;;;;;24.30;35.70;;;;;;479604;248;1241;-71
2021/10/31 10:51:09;;;;;;;;;;;24.40;35.70;;;;;;479505;248;1474;-71
2021/10/31 10:53:10;;;;;;;;;;;24.40;35.70;;;;;;479599;248;1032;-71
2021/10/31 10:55:11;;;;;;;;;;;24.40;35.60;;;;;;479602;248;1058;-71
2021/10/31 10:57:14;;;;;;;;;;;24.30;35.80;;;;;;479580;248;1140;-71
2021/10/31 10:59:14;;;;;;;;;;;24.40;35.80;;;;;;479538;248;2186;-71
2021/10/31 11:01:15;;;;;;;;;;;24.40;36.10;;;;;;479622;245;1234;-71
2021/10/31 11:03:18;;;;;;;;;;;24.20;36.00;;;;;;479581;248;1049;-71
2021/10/31 11:05:19;;;;;;;;;;;24.30;36.20;;;;;;479599;248;1381;-71
2021/10/31 11:07:20;;;;;;;;;;;24.30;36.00;;;;;;479491;248;1344;-72
2021/10/31 11:09:21;;;;;;;;;;;24.30;36.20;;;;;;479626;248;1009;-71
2021/10/31 11:11:22;;;;;;;;;;;24.30;36.10;;;;;;479560;247;1296;-71
2021/10/31 11:13:23;;;;;;;;;;;24.30;36.10;;;;;;479533;248;1009;-71
2021/10/31 11:15:25;;;;;;;;;;;24.40;36.10;;;;;;479591;248;976;-71
2021/10/31 11:17:26;;;;;;;;;;;24.30;36.30;;;;;;479504;248;1133;-71
2021/10/31 11:19:28;;;;;;;;;;;24.20;36.20;;;;;;479554;248;2239;-71
2021/10/31 11:21:29;;;;;;;;;;;24.20;36.20;;;;;;479583;248;1209;-71
2021/10/31 11:23:30;;;;;;;;;;;24.20;36.30;;;;;;479592;248;1089;-71
2021/10/31 11:25:32;;;;;;;;;;;24.20;36.40;;;;;;479633;248;925;-71
2021/10/31 11:27:33;;;;;;;;;;;24.30;36.30;;;;;;479554;248;1627;-71
2021/10/31 11:29:34;;;;;;;;;;;24.30;36.40;;;;;;479586;248;976;-71
2021/10/31 11:31:36;;;;;;;;;;;24.20;36.50;;;;;;479543;245;1390;-71
2021/10/31 11:33:37;;;;;;;;;;;24.30;36.50;;;;;;479583;248;1224;-71
2021/10/31 11:35:38;;;;;;;;;;;24.20;36.50;;;;;;479596;248;1011;-71
2021/10/31 11:37:40;;;;;;;;;;;24.00;36.80;;;;;;479509;248;1199;-71
2021/10/31 11:39:41;;;;;;;;;;;24.10;36.70;;;;;;479538;248;2126;-71
2021/10/31 11:41:42;;;;;;;;;;;24.10;36.70;;;;;;479544;247;1327;-71
2021/10/31 11:43:44;;;;;;;;;;;24.10;36.50;;;;;;479625;248;974;-71
2021/10/31 11:45:45;;;;;;;;;;;24.10;36.70;;;;;;479629;248;937;-71
2021/10/31 11:47:46;;;;;;;;;;;24.00;36.60;;;;;;479595;248;986;-71
2021/10/31 11:49:48;;;;;;;;;;;24.20;36.60;;;;;;479613;248;962;-71
2021/10/31 11:51:50;;;;;;;;;;;24.10;36.60;;;;;;479557;248;975;-71
2021/10/31 11:53:50;;;;;;;;;;;24.20;36.50;;;;;;479532;248;1411;-71
2021/10/31 11:55:57;;;;;;;;;;;24.30;36.40;;;;;;479587;248;1019;-71
2021/10/31 11:58:10;;;;;;;;;;;24.30;36.40;;;;;;479446;248;1451;-71
2021/10/31 12:00:12;;;;;;;;;;;24.10;36.60;;;;;;479454;248;2131;-71